Time;durP1;ratioP1;P1;durP2;ratioP2;P2;SDS_P1;SDS_P2;PMS_P1;PMS_P2;Temp;Humidity;BMP_temperature;BMP_pressure;BME280_temperature;BME280_humidity;BME280_pressure;Samples;Min_cycle;Max_cycle;Signal;HPM_P1;HPM_P2
2024/02/15 00:01:12;;;;;;;8.95;1.80;;;;;;;9.29;57.61;100628.28;4198749;33;33069;-84
2024/02/15 00:03:41;;;;;;;10.07;2.95;;;;;;;9.57;56.41;100619.66;4227257;33;33679;-84
2024/02/15 00:06:08;;;;;;;0.80;0.50;;;;;;;9.49;56.26;100618.09;4208820;33;32466;-84
2024/02/15 00:08:36;;;;;;;2.55;1.98;;;;;;;9.44;56.60;100619.09;4223186;33;32834;-84
2024/02/15 00:11:04;;;;;;;0.93;0.93;;;;;;;9.27;57.29;100619.56;4224457;33;34028;-84
2024/02/15 00:13:33;;;;;;;1.15;1.05;;;;;;;9.26;57.40;100620.47;4211917;33;33602;-84
2024/02/15 00:16:01;;;;;;;2.80;0.62;;;;;;;9.61;56.52;100622.16;4211724;33;34061;-85
2024/02/15 00:18:31;;;;;;;5.18;2.33;;;;;;;9.51;56.29;100625.09;4211118;33;34120;-84
2024/02/15 00:20:59;;;;;;;0.57;0.57;;;;;;;9.37;56.81;100623.69;4213253;33;34160;-85
2024/02/15 00:23:27;;;;;;;2.35;1.87;;;;;;;9.15;57.75;100620.69;4201200;33;33075;-84
2024/02/15 00:25:55;;;;;;;0.98;0.77;;;;;;;9.57;56.44;100624.94;4211257;33;33308;-83
2024/02/15 00:28:24;;;;;;;1.08;1.02;;;;;;;9.42;56.92;100626.19;4208691;34;33696;-84
2024/02/15 00:30:51;;;;;;;0.85;0.85;;;;;;;9.35;57.35;100622.88;4198938;33;34802;-84
2024/02/15 00:33:20;;;;;;;0.32;0.32;;;;;;;9.34;57.96;100622.88;4201453;33;32980;-84
2024/02/15 00:35:51;;;;;;;1.67;1.58;;;;;;;9.36;57.71;100621.09;4223501;33;32093;-84
2024/02/15 00:38:20;;;;;;;0.45;0.45;;;;;;;9.39;57.74;100611.31;4232760;33;34060;-84
2024/02/15 00:40:47;;;;;;;5.37;1.30;;;;;;;9.77;55.98;100609.41;4224302;33;33330;-84
2024/02/15 00:43:15;;;;;;;0.68;0.68;;;;;;;9.93;55.21;100615.16;4222275;33;33190;-83
2024/02/15 00:45:42;;;;;;;0.73;0.57;;;;;;;10.04;55.48;100612.22;4222389;33;33521;-84
2024/02/15 00:48:10;;;;;;;1.23;1.12;;;;;;;9.74;56.22;100614.81;4224868;33;33200;-85
2024/02/15 00:50:38;;;;;;;1.35;0.80;;;;;;;9.44;56.62;100614.69;4221721;33;34613;-83
2024/02/15 00:53:06;;;;;;;0.35;0.35;;;;;;;9.29;57.02;100614.22;4216421;33;32413;-83
2024/02/15 00:55:34;;;;;;;0.10;0.10;;;;;;;9.27;57.00;100622.19;4201705;33;32700;-82
2024/02/15 00:58:02;;;;;;;1.35;1.12;;;;;;;9.38;57.38;100620.13;4220107;33;33252;-83
2024/02/15 01:00:30;;;;;;;0.30;0.30;;;;;;;9.35;57.62;100621.97;4212010;33;34284;-83
2024/02/15 01:02:57;;;;;;;0.85;0.85;;;;;;;9.39;57.62;100626.25;4221565;33;33239;-83
2024/02/15 01:05:25;;;;;;;1.27;1.17;;;;;;;9.54;57.13;100614.44;4210745;33;32851;-83
2024/02/15 01:07:55;;;;;;;1.67;1.58;;;;;;;9.62;57.07;100621.25;4210716;33;33265;-83
2024/02/15 01:10:26;;;;;;;1.23;0.93;;;;;;;9.57;57.13;100622.28;4224563;33;33534;-83
2024/02/15 01:12:54;;;;;;;0.20;0.20;;;;;;;9.62;57.03;100625.66;4199833;33;34244;-83
2024/02/15 01:15:22;;;;;;;0.75;0.75;;;;;;;9.67;56.83;100627.28;4200897;33;34115;-83
2024/02/15 01:17:49;;;;;;;0.77;0.77;;;;;;;9.61;56.88;100616.03;4188767;33;33333;-82
2024/02/15 01:20:17;;;;;;;0.20;0.20;;;;;;;9.72;56.72;100614.81;4222450;33;33863;-83
2024/02/15 01:22:45;;;;;;;0.52;0.52;;;;;;;9.79;56.66;100614.69;4200090;33;34362;-83
2024/02/15 01:25:15;;;;;;;0.68;0.68;;;;;;;9.78;56.67;100612.91;4209368;33;32694;-83
2024/02/15 01:27:43;;;;;;;1.17;0.57;;;;;;;9.82;56.65;100615.44;4201143;33;34712;-83
2024/02/15 01:30:11;;;;;;;0.82;0.80;;;;;;;9.86;56.46;100616.22;4200115;33;34109;-83
2024/02/15 01:32:41;;;;;;;0.55;0.55;;;;;;;9.82;56.49;100620.72;4209069;33;33465;-83
2024/02/15 01:35:10;;;;;;;1.17;1.05;;;;;;;9.85;56.35;100615.38;4222792;33;32598;-83
2024/02/15 01:37:37;;;;;;;1.83;1.73;;;;;;;9.92;56.31;100605.50;4199580;33;33389;-83
2024/02/15 01:40:06;;;;;;;1.95;1.17;;;;;;;9.86;56.39;100606.53;4204047;33;34755;-83
2024/02/15 01:42:34;;;;;;;3.90;1.02;;;;;;;9.93;56.10;100618.66;4225076;33;33555;-83
2024/02/15 01:45:02;;;;;;;3.12;1.20;;;;;;;9.96;56.15;100613.28;4223339;33;33889;-83
2024/02/15 01:47:30;;;;;;;0.32;0.32;;;;;;;9.86;56.28;100622.34;4213517;33;33886;-83
2024/02/15 01:49:58;;;;;;;0.65;0.65;;;;;;;10.01;55.65;100615.78;4213331;33;34335;-83
2024/02/15 01:52:27;;;;;;;3.72;0.62;;;;;;;9.99;55.91;100610.56;4226141;33;33581;-83
2024/02/15 01:54:57;;;;;;;0.10;0.10;;;;;;;9.95;55.81;100615.97;4213430;33;33905;-84
2024/02/15 01:57:24;;;;;;;0.62;0.62;;;;;;;9.98;55.92;100607.97;4200366;33;33512;-83
2024/02/15 01:59:53;;;;;;;3.60;1.40;;;;;;;9.94;56.01;100609.84;4194513;33;33388;-83
2024/02/15 02:02:22;;;;;;;0.65;0.65;;;;;;;9.90;56.32;100608.19;4211940;33;34164;-84
2024/02/15 02:04:50;;;;;;;0.90;0.85;;;;;;;9.98;56.32;100590.38;4199109;33;34011;-83
2024/02/15 02:07:17;;;;;;;8.93;1.37;;;;;;;9.92;56.48;100595.84;4212232;33;34173;-83
2024/02/15 02:09:46;;;;;;;0.20;0.20;;;;;;;9.95;56.37;100595.72;4202402;33;32543;-82
2024/02/15 02:12:15;;;;;;;1.08;1.08;;;;;;;9.92;56.33;100594.94;4200057;33;33376;-83
2024/02/15 02:14:42;;;;;;;10.98;1.27;;;;;;;10.03;55.85;100599.94;4212872;33;34339;-83
2024/02/15 02:17:27;;;;;;;4.50;1.92;;;;;;;10.33;54.42;100596.41;4200588;33;33763;-83
2024/02/15 02:19:55;;;;;;;0.93;0.93;;;;;;;9.93;55.31;100592.28;4214022;33;32439;-83
2024/02/15 02:22:22;;;;;;;2.37;1.95;;;;;;;9.83;55.95;100589.97;4216511;33;32247;-83
2024/02/15 02:25:00;;;;;;;4.75;2.20;;;;;;;9.76;56.17;100589.25;4217329;33;33197;-85
2024/02/15 02:27:32;;;;;;;0.90;0.90;;;;;;;9.75;56.42;100587.50;4224163;33;33714;-84
2024/02/15 02:30:00;;;;;;;3.30;0.85;;;;;;;9.64;56.67;100594.88;4224184;33;34207;-84
2024/02/15 02:32:28;;;;;;;1.15;0.80;;;;;;;9.51;57.19;100591.69;4198999;33;34934;-84
2024/02/15 02:34:57;;;;;;;2.50;1.90;;;;;;;9.57;57.02;100593.28;4211301;33;33947;-84
2024/02/15 02:37:25;;;;;;;0.10;0.10;;;;;;;9.44;57.29;100588.34;4209372;33;33393;-84
2024/02/15 02:39:54;;;;;;;0.68;0.68;;;;;;;9.58;56.90;100585.31;4214651;33;34559;-85
2024/02/15 02:42:50;;;;;;;1.17;1.15;;;;;;;9.52;57.04;100589.91;4213123;33;32971;-84
2024/02/15 02:45:22;;;;;;;3.28;0.85;;;;;;;9.55;56.71;100588.06;4207832;33;34111;-84
2024/02/15 02:47:52;;;;;;;2.83;1.08;;;;;;;9.37;56.88;100592.03;4201833;33;34048;-83
2024/02/15 02:50:22;;;;;;;0.62;0.62;;;;;;;9.40;57.08;100593.72;4200216;33;35688;-83
2024/02/15 02:52:51;;;;;;;0.37;0.37;;;;;;;9.47;56.81;100592.66;4209762;33;33529;-83
2024/02/15 02:55:18;;;;;;;0.70;0.52;;;;;;;9.37;57.09;100594.69;4202181;33;32058;-83
2024/02/15 02:57:46;;;;;;;1.55;1.23;;;;;;;9.42;57.12;100590.16;4225271;33;33080;-83
2024/02/15 03:00:16;;;;;;;2.05;1.55;;;;;;;9.23;57.63;100596.81;4235897;33;33886;-83
2024/02/15 03:02:46;;;;;;;1.90;0.82;;;;;;;9.20;57.75;100599.50;4217541;33;33554;-83
2024/02/15 03:05:14;;;;;;;0.35;0.35;;;;;;;9.06;58.36;100599.00;4213207;33;33695;-84
2024/02/15 03:07:42;;;;;;;0.68;0.68;;;;;;;9.20;57.88;100596.87;4190910;33;33387;-84
2024/02/15 03:10:13;;;;;;;0.73;0.73;;;;;;;9.25;57.91;100602.91;4200048;33;34018;-83
2024/02/15 03:12:48;;;;;;;;;;;;;;;9.18;57.79;100602.19;4227144;33;32966;-84
2024/02/15 03:15:17;;;;;;;0.25;0.25;;;;;;;9.07;57.99;100603.34;4225423;33;34996;-84
2024/02/15 03:17:47;;;;;;;0.35;0.35;;;;;;;9.02;58.28;100600.84;4222622;33;33165;-85
2024/02/15 03:20:23;;;;;;;2.00;1.33;;;;;;;9.14;57.93;100599.69;4212924;33;34340;-85
2024/02/15 03:22:55;;;;;;;0.80;0.43;;;;;;;9.18;57.82;100606.59;4201951;33;33683;-84
2024/02/15 03:25:24;;;;;;;3.12;1.80;;;;;;;9.13;57.95;100608.50;4200881;33;33953;-84
2024/02/15 03:27:56;;;;;;;2.25;1.08;;;;;;;9.15;57.84;100601.41;4199175;33;32664;-85
2024/02/15 03:30:26;;;;;;;5.50;1.42;;;;;;;9.16;57.93;100603.13;4213040;33;33970;-84
2024/02/15 03:32:53;;;;;;;1.50;1.40;;;;;;;9.07;58.39;100609.50;4211524;33;33974;-85
2024/02/15 03:35:26;;;;;;;0.82;0.82;;;;;;;9.11;58.26;100605.00;4213584;33;32177;-84
2024/02/15 03:37:54;;;;;;;;;;;;;;;9.21;57.48;100606.53;4213030;33;32948;-84
2024/02/15 03:40:24;;;;;;;0.88;0.50;;;;;;;9.05;58.36;100605.16;4208347;33;33001;-84
2024/02/15 03:42:51;;;;;;;1.33;1.27;;;;;;;9.05;58.47;100602.53;4202106;33;34479;-84
2024/02/15 03:45:20;;;;;;;1.37;1.27;;;;;;;9.03;58.62;100601.72;4225192;33;32550;-84
2024/02/15 03:47:49;;;;;;;0.10;0.10;;;;;;;8.97;58.64;100608.88;4214825;33;33419;-84
2024/02/15 03:50:18;;;;;;;0.82;0.82;;;;;;;8.98;58.80;100610.59;4188321;33;33000;-85
2024/02/15 03:52:46;;;;;;;0.65;0.65;;;;;;;9.04;58.93;100611.34;4211347;33;34053;-84
2024/02/15 03:55:15;;;;;;;1.10;0.68;;;;;;;9.33;57.55;100614.13;4199658;33;33563;-84
2024/02/15 03:57:44;;;;;;;0.15;0.15;;;;;;;9.09;58.35;100606.84;4222504;33;33941;-84
2024/02/15 04:00:14;;;;;;;1.80;1.62;;;;;;;9.15;58.38;100599.63;4212259;33;33425;-84
2024/02/15 04:02:43;;;;;;;0.20;0.20;;;;;;;9.04;58.73;100600.81;4203117;33;34258;-84
2024/02/15 04:05:11;;;;;;;4.37;0.88;;;;;;;9.16;58.43;100592.59;4209802;33;33924;-85
2024/02/15 04:07:40;;;;;;;0.85;0.85;;;;;;;9.02;59.05;100599.97;4202297;33;33393;-84
2024/02/15 04:10:08;;;;;;;0.55;0.55;;;;;;;9.03;59.35;100596.44;4213464;33;32846;-84
2024/02/15 04:12:49;;;;;;;0.88;0.85;;;;;;;9.15;59.03;100590.84;4230304;33;34418;-85
2024/02/15 04:15:17;;;;;;;0.73;0.73;;;;;;;9.03;59.59;100593.81;4224947;33;33058;-84
2024/02/15 04:17:45;;;;;;;1.27;1.15;;;;;;;9.17;59.23;100594.34;4206266;33;32977;-84
2024/02/15 04:20:15;;;;;;;0.45;0.37;;;;;;;9.09;59.48;100596.28;4225330;33;34066;-84
2024/02/15 04:22:44;;;;;;;0.00;0.00;;;;;;;9.19;59.19;100598.66;4197439;33;32626;-85
2024/02/15 04:25:16;;;;;;;0.25;0.22;;;;;;;9.20;59.26;100592.47;4211978;33;33828;-84
2024/02/15 04:27:49;;;;;;;0.68;0.43;;;;;;;9.21;58.96;100593.37;4221530;33;34950;-83
2024/02/15 04:30:17;;;;;;;3.92;1.80;;;;;;;9.35;58.94;100603.53;4212825;33;33591;-84
2024/02/15 04:32:46;;;;;;;0.55;0.55;;;;;;;9.32;58.74;100599.22;4220194;33;33601;-84
2024/02/15 04:35:14;;;;;;;1.77;1.55;;;;;;;9.33;58.67;100608.84;4223017;33;33063;-84
2024/02/15 04:37:43;;;;;;;0.60;0.60;;;;;;;9.30;59.09;100603.63;4200525;33;34068;-84
2024/02/15 04:40:13;;;;;;;1.98;1.05;;;;;;;9.32;58.84;100604.47;4222081;33;33812;-85
2024/02/15 04:42:41;;;;;;;1.00;0.93;;;;;;;9.41;58.58;100604.25;4210986;33;33274;-84
2024/02/15 04:45:13;;;;;;;0.88;0.88;;;;;;;9.47;58.40;100597.94;4200485;33;33408;-83
2024/02/15 04:47:57;;;;;;;2.25;0.70;;;;;;;9.42;58.76;100595.44;4215600;33;33923;-83
2024/02/15 04:50:25;;;;;;;0.95;0.95;;;;;;;9.15;59.69;100597.00;4212036;33;33944;-84
2024/02/15 04:52:53;;;;;;;1.27;1.27;;;;;;;9.33;58.98;100595.66;4211366;33;33293;-84
2024/02/15 04:55:22;;;;;;;0.85;0.85;;;;;;;9.42;59.00;100590.16;4224853;33;32799;-83
2024/02/15 04:57:54;;;;;;;0.95;0.82;;;;;;;9.34;58.91;100604.44;4206042;33;34260;-84
2024/02/15 05:00:23;;;;;;;;;;;;;;;9.43;58.72;100596.28;4223222;33;34210;-84
2024/02/15 05:02:50;;;;;;;0.35;0.35;;;;;;;9.53;58.33;100599.53;4222626;33;32167;-84
2024/02/15 05:05:19;;;;;;;1.37;0.98;;;;;;;9.50;58.31;100595.25;4209042;34;34091;-84
2024/02/15 05:07:49;;;;;;;1.90;0.80;;;;;;;9.51;58.53;100601.38;4198843;33;35014;-84
2024/02/15 05:10:16;;;;;;;0.68;0.68;;;;;;;9.53;58.66;100602.19;4210672;33;34152;-84
2024/02/15 05:12:44;;;;;;;0.95;0.95;;;;;;;9.57;58.57;100603.84;4220254;33;34260;-84
2024/02/15 05:15:12;;;;;;;0.10;0.10;;;;;;;9.59;58.28;100612.56;4224512;33;33743;-84
2024/02/15 05:17:41;;;;;;;0.47;0.47;;;;;;;9.59;58.42;100610.81;4198225;34;34008;-83
2024/02/15 05:20:11;;;;;;;1.08;0.90;;;;;;;9.67;58.24;100608.81;4204639;33;34864;-83
2024/02/15 05:22:40;;;;;;;2.85;2.03;;;;;;;9.59;58.52;100612.56;4212020;33;33280;-83
2024/02/15 05:25:12;;;;;;;0.50;0.50;;;;;;;9.75;57.92;100605.97;4213196;33;34029;-84
2024/02/15 05:27:42;;;;;;;1.20;1.12;;;;;;;9.42;58.83;100605.97;4202461;33;34053;-83
2024/02/15 05:30:11;;;;;;;0.20;0.20;;;;;;;9.59;58.28;100605.53;4211627;33;34253;-84
2024/02/15 05:32:43;;;;;;;1.02;0.95;;;;;;;9.93;57.23;100612.53;4202886;33;33505;-83
2024/02/15 05:35:11;;;;;;;1.65;1.10;;;;;;;9.70;57.68;100621.06;4223369;33;32582;-83
2024/02/15 05:37:39;;;;;;;0.25;0.25;;;;;;;9.70;57.97;100611.38;4222422;33;33949;-83
2024/02/15 05:40:09;;;;;;;0.45;0.40;;;;;;;9.79;57.82;100615.53;4226074;33;34268;-83
2024/02/15 05:42:36;;;;;;;1.30;1.20;;;;;;;9.73;57.72;100610.41;4203582;33;33391;-83
2024/02/15 05:45:29;;;;;;;0.20;0.20;;;;;;;9.75;58.32;100617.38;4187743;33;33118;-83
2024/02/15 05:47:58;;;;;;;1.05;1.05;;;;;;;9.71;58.10;100614.88;4213039;33;33785;-83
2024/02/15 05:50:29;;;;;;;0.60;0.50;;;;;;;9.72;58.25;100614.81;4212722;33;34646;-83
2024/02/15 05:52:58;;;;;;;1.75;1.45;;;;;;;9.65;58.44;100620.31;4233740;33;34107;-83
2024/02/15 05:55:26;;;;;;;0.52;0.45;;;;;;;9.61;58.11;100616.03;4224135;33;33393;-83
2024/02/15 05:57:54;;;;;;;0.80;0.50;;;;;;;9.73;58.33;100624.50;4211073;33;33039;-83
2024/02/15 06:00:22;;;;;;;0.28;0.28;;;;;;;9.83;58.14;100626.87;4225007;33;34856;-83
2024/02/15 06:02:52;;;;;;;0.85;0.85;;;;;;;9.74;58.28;100633.25;4223774;33;34156;-83
2024/02/15 06:05:20;;;;;;;3.50;1.27;;;;;;;9.75;58.22;100629.72;4213887;33;34923;-84
2024/02/15 06:07:48;;;;;;;0.47;0.28;;;;;;;9.81;58.13;100629.53;4221571;33;34046;-84
2024/02/15 06:10:17;;;;;;;0.85;0.50;;;;;;;9.76;57.94;100631.44;4206904;33;34109;-84
2024/02/15 06:12:45;;;;;;;4.55;0.85;;;;;;;9.83;57.77;100633.03;4211796;33;32594;-83
2024/02/15 06:15:15;;;;;;;1.50;0.45;;;;;;;9.77;57.83;100634.94;4221504;33;33996;-83
2024/02/15 06:17:44;;;;;;;;;;;;;;;9.90;57.64;100629.28;4202782;33;33501;-83
2024/02/15 06:20:17;;;;;;;0.10;0.10;;;;;;;9.84;57.79;100632.09;4245758;33;33855;-84
2024/02/15 06:22:51;;;;;;;0.30;0.30;;;;;;;9.90;57.78;100634.56;4211320;33;33180;-82
2024/02/15 06:25:20;;;;;;;0.82;0.65;;;;;;;10.31;56.41;100635.22;4202702;33;33708;-82
2024/02/15 06:27:58;;;;;;;0.47;0.47;;;;;;;10.22;56.36;100641.56;4209408;33;34138;-82
2024/02/15 06:41:37;;;;;;;0.20;0.20;;;;;;;10.22;57.29;100649.50;4214896;33;34304;-84
2024/02/15 06:44:05;;;;;;;2.50;1.87;;;;;;;10.27;57.12;100649.41;4194669;33;32917;-84
2024/02/15 06:46:33;;;;;;;5.50;2.25;;;;;;;10.41;56.45;100652.50;4213586;33;33023;-84
2024/02/15 06:49:01;;;;;;;0.93;0.82;;;;;;;10.13;55.94;100662.09;4212954;33;32300;-83
2024/02/15 06:51:28;;;;;;;0.73;0.55;;;;;;;9.64;57.82;100663.44;4201309;33;31390;-84
2024/02/15 06:53:56;;;;;;;0.65;0.65;;;;;;;10.28;55.46;100666.97;4203474;33;31677;-84
2024/02/15 06:56:24;;;;;;;0.90;0.90;;;;;;;10.28;55.20;100666.09;4198206;33;33453;-83
2024/02/15 06:58:53;;;;;;;2.37;2.10;;;;;;;10.06;55.65;100661.38;4216276;33;33307;-83
2024/02/15 07:01:24;;;;;;;4.03;2.40;;;;;;;10.05;56.20;100667.56;4222432;33;33952;-83
2024/02/15 07:03:52;;;;;;;3.37;3.08;;;;;;;10.25;55.24;100672.31;4203620;33;33859;-83
2024/02/15 07:06:23;;;;;;;1.52;1.42;;;;;;;10.27;55.63;100675.78;4221795;33;34114;-84
2024/02/15 07:08:52;;;;;;;1.58;1.48;;;;;;;10.09;56.42;100678.91;4215203;33;34285;-83
2024/02/15 07:11:22;;;;;;;3.12;2.85;;;;;;;10.46;55.73;100673.50;4208423;33;34103;-83
2024/02/15 07:13:53;;;;;;;5.90;2.25;;;;;;;10.39;55.85;100675.44;4213582;33;34232;-84
2024/02/15 07:16:20;;;;;;;1.67;1.58;;;;;;;10.27;56.23;100675.78;4202983;33;34283;-83
2024/02/15 07:18:48;;;;;;;1.77;1.65;;;;;;;10.28;56.32;100672.25;4214950;33;34329;-83
2024/02/15 07:21:16;;;;;;;34.70;2.92;;;;;;;10.13;57.12;100677.91;4201320;33;35181;-82
2024/02/15 07:23:46;;;;;;;3.70;2.80;;;;;;;10.41;56.24;100686.81;4197724;33;33437;-82
2024/02/15 07:26:15;;;;;;;2.55;1.98;;;;;;;10.30;56.67;100688.03;4202804;33;33843;-82
2024/02/15 07:28:42;;;;;;;4.80;3.08;;;;;;;10.26;57.02;100687.28;4235422;33;33755;-81
2024/02/15 07:31:10;;;;;;;4.35;3.75;;;;;;;10.39;56.87;100685.13;4213352;33;34145;-81
2024/02/15 07:33:38;;;;;;;6.78;2.15;;;;;;;10.28;57.18;100688.06;4210797;33;33533;-81
2024/02/15 07:36:06;;;;;;;12.98;2.97;;;;;;;10.60;56.10;100681.00;4206794;33;33387;-82
2024/02/15 07:38:35;;;;;;;1.65;1.55;;;;;;;10.59;56.43;100687.22;4201919;33;33757;-81
2024/02/15 07:41:03;;;;;;;3.20;2.97;;;;;;;10.69;56.35;100688.66;4215388;33;34870;-81
2024/02/15 07:43:31;;;;;;;3.42;2.83;;;;;;;10.65;56.43;100681.72;4223457;33;32505;-82
2024/02/15 07:45:58;;;;;;;3.35;1.40;;;;;;;10.36;56.08;100688.72;4212095;33;32644;-82
2024/02/15 07:48:26;;;;;;;1.70;1.62;;;;;;;10.68;55.16;100677.22;4219681;33;33959;-82
2024/02/15 07:50:54;;;;;;;1.95;1.83;;;;;;;10.69;55.43;100683.38;4224245;33;34158;-81
2024/02/15 07:53:23;;;;;;;7.47;2.62;;;;;;;11.16;53.82;100684.53;4210042;33;34905;-81
2024/02/15 07:55:52;;;;;;;3.08;2.47;;;;;;;11.03;54.32;100683.19;4201817;33;33992;-81
2024/02/15 07:58:20;;;;;;;2.87;2.67;;;;;;;10.84;54.81;100682.03;4224047;33;33320;-81
2024/02/15 08:00:48;;;;;;;2.55;2.35;;;;;;;10.67;55.54;100674.63;4215968;33;37665;-81
2024/02/15 08:03:16;;;;;;;2.87;2.67;;;;;;;10.82;55.04;100671.50;4210606;33;32747;-81
2024/02/15 08:05:44;;;;;;;2.30;2.17;;;;;;;10.56;55.78;100677.59;4226987;33;34090;-82
2024/02/15 08:08:12;;;;;;;4.03;3.05;;;;;;;10.50;56.63;100669.84;4202896;33;34847;-81
2024/02/15 08:10:41;;;;;;;3.78;3.47;;;;;;;10.79;55.68;100668.97;4213043;33;35596;-82
2024/02/15 08:13:10;;;;;;;1.85;1.75;;;;;;;10.62;56.01;100676.53;4224473;33;33120;-82
2024/02/15 08:15:38;;;;;;;2.05;1.95;;;;;;;10.53;56.77;100677.66;4222877;33;33462;-81
2024/02/15 08:18:09;;;;;;;5.75;3.55;;;;;;;10.62;56.15;100673.88;4200362;33;34125;-81
2024/02/15 08:20:37;;;;;;;2.85;2.65;;;;;;;10.85;55.77;100666.12;4213544;33;33581;-82
2024/02/15 08:23:04;;;;;;;3.60;1.98;;;;;;;10.84;55.79;100669.69;4208108;33;34188;-81
2024/02/15 08:25:32;;;;;;;3.05;2.78;;;;;;;10.58;56.63;100666.97;4203230;33;33871;-82
2024/02/15 08:28:05;;;;;;;1.65;1.55;;;;;;;10.64;57.15;100669.44;4212267;33;34147;-81
2024/02/15 08:30:33;;;;;;;2.17;1.98;;;;;;;10.72;56.70;100667.41;4220560;33;32542;-81
2024/02/15 08:33:01;;;;;;;2.75;1.77;;;;;;;11.05;55.73;100673.44;4215200;33;31160;-81
2024/02/15 08:35:29;;;;;;;1.67;1.58;;;;;;;11.34;54.30;100672.47;4210441;33;33101;-83
2024/02/15 08:37:57;;;;;;;3.33;2.17;;;;;;;11.11;55.24;100675.00;4208729;33;34628;-83
2024/02/15 08:40:25;;;;;;;12.15;4.30;;;;;;;11.32;54.92;100682.25;4222909;33;33163;-82
2024/02/15 08:42:53;;;;;;;3.97;3.05;;;;;;;11.44;54.54;100673.94;4213887;33;32733;-84
2024/02/15 08:45:21;;;;;;;2.00;1.90;;;;;;;11.31;54.21;100682.31;4213663;33;33234;-83
2024/02/15 08:47:52;;;;;;;17.27;4.05;;;;;;;11.24;54.78;100684.28;4219291;33;34191;-84
2024/02/15 08:50:23;;;;;;;3.22;2.53;;;;;;;11.34;54.33;100685.69;4211744;33;32636;-82
2024/02/15 08:52:51;;;;;;;1.73;1.62;;;;;;;11.20;54.94;100690.56;4215242;33;32681;-82
2024/02/15 08:55:23;;;;;;;3.05;2.65;;;;;;;11.25;55.14;100689.53;4212955;33;33301;-82
2024/02/15 08:57:51;;;;;;;1.92;1.60;;;;;;;11.35;54.40;100690.09;4217105;33;35041;-82
2024/02/15 09:00:20;;;;;;;6.43;4.20;;;;;;;11.32;54.18;100687.56;4215623;33;33825;-82
2024/02/15 09:02:51;;;;;;;4.18;3.80;;;;;;;11.69;52.91;100692.47;4214457;33;31945;-82
2024/02/15 09:05:22;;;;;;;2.67;1.92;;;;;;;11.65;52.95;100697.94;4203885;33;32151;-82
2024/02/15 09:07:51;;;;;;;3.40;2.47;;;;;;;11.52;53.48;100694.81;4212622;33;32517;-82
2024/02/15 09:10:22;;;;;;;3.20;2.40;;;;;;;11.83;52.21;100697.34;4223890;33;34703;-82
2024/02/15 09:12:51;;;;;;;2.40;2.20;;;;;;;11.64;52.95;100696.22;4223496;33;32914;-81
2024/02/15 09:15:21;;;;;;;7.93;3.60;;;;;;;11.52;52.91;100690.41;4225643;33;33704;-82
2024/02/15 09:17:54;;;;;;;1.83;1.73;;;;;;;11.37;53.29;100688.25;4202322;33;32021;-82
2024/02/15 09:20:25;;;;;;;5.50;3.65;;;;;;;11.70;52.74;100686.28;4226775;33;34288;-82
2024/02/15 09:22:54;;;;;;;9.30;3.50;;;;;;;11.87;51.99;100677.78;4225217;33;33514;-81
2024/02/15 09:25:26;;;;;;;4.95;4.30;;;;;;;11.68;52.44;100695.16;4224227;33;34550;-82
2024/02/15 09:27:54;;;;;;;8.93;2.22;;;;;;;11.75;52.20;100689.62;4201467;33;34996;-82
2024/02/15 09:30:24;;;;;;;7.53;4.72;;;;;;;11.53;52.83;100694.75;4216650;33;33040;-82
2024/02/15 09:32:52;;;;;;;1.75;1.55;;;;;;;11.18;54.36;100693.28;4202980;33;34910;-82
2024/02/15 09:35:22;;;;;;;3.70;3.47;;;;;;;11.15;53.91;100692.50;4201514;33;32007;-82
2024/02/15 09:37:49;;;;;;;3.10;1.92;;;;;;;11.36;53.20;100702.41;4225072;33;34268;-82
2024/02/15 09:40:19;;;;;;;5.15;1.80;;;;;;;11.82;52.31;100700.91;4212745;33;34552;-84
2024/02/15 09:42:47;;;;;;;8.00;3.15;;;;;;;12.27;50.59;100695.75;4213083;33;33668;-81
2024/02/15 09:45:16;;;;;;;3.87;3.22;;;;;;;11.91;51.97;100692.62;4216207;33;34410;-81
2024/02/15 09:47:45;;;;;;;2.97;2.78;;;;;;;11.90;52.33;100685.59;4212117;33;33166;-83
2024/02/15 09:50:15;;;;;;;2.33;2.17;;;;;;;11.74;52.94;100697.63;4225974;33;33819;-83
2024/02/15 09:52:51;;;;;;;7.47;2.87;;;;;;;12.08;51.66;100685.88;4192213;33;32441;-83
2024/02/15 09:55:20;;;;;;;3.00;2.87;;;;;;;11.72;52.87;100688.84;4217052;33;31843;-83
2024/02/15 09:57:47;;;;;;;2.47;2.28;;;;;;;11.99;52.69;100687.94;4212820;33;33143;-84
2024/02/15 10:00:16;;;;;;;7.03;2.17;;;;;;;12.27;52.47;100684.28;4212394;33;34489;-85
2024/02/15 10:02:53;;;;;;;6.75;3.28;;;;;;;12.21;51.69;100689.81;4216759;33;34656;-84
2024/02/15 10:05:22;;;;;;;9.68;3.92;;;;;;;12.90;50.16;100676.59;4201544;33;34572;-84
2024/02/15 10:07:51;;;;;;;4.28;2.83;;;;;;;12.88;50.03;100676.69;4194923;33;33517;-84
2024/02/15 10:10:22;;;;;;;3.47;3.17;;;;;;;12.23;51.36;100686.19;4222116;33;33026;-85
2024/02/15 10:12:53;;;;;;;2.00;1.90;;;;;;;12.17;51.25;100685.56;4213367;33;33259;-85
2024/02/15 10:15:34;;;;;;;1.80;1.70;;;;;;;12.08;51.77;100685.88;4200426;33;34129;-85
2024/02/15 10:18:09;;;;;;;4.12;1.87;;;;;;;12.87;49.94;100674.97;4223202;33;32710;-85
2024/02/15 10:20:39;;;;;;;7.07;3.78;;;;;;;12.82;50.34;100669.84;4228430;33;33011;-84
2024/02/15 10:23:08;;;;;;;9.23;3.97;;;;;;;12.77;49.08;100670.91;4201167;33;34619;-85
2024/02/15 10:25:38;;;;;;;4.05;2.10;;;;;;;12.85;49.01;100682.09;4226480;33;34740;-84
2024/02/15 10:28:09;;;;;;;3.10;2.90;;;;;;;13.14;48.80;100666.81;4215427;33;32802;-85
2024/02/15 10:30:39;;;;;;;4.50;3.70;;;;;;;12.96;49.70;100677.25;4225885;33;33338;-84
2024/02/15 10:33:10;;;;;;;3.12;2.92;;;;;;;13.17;49.25;100664.91;4201419;33;33917;-85
2024/02/15 10:35:39;;;;;;;5.65;2.55;;;;;;;12.74;49.50;100666.63;4222010;33;32177;-85
2024/02/15 10:38:09;;;;;;;8.15;4.30;;;;;;;12.93;49.31;100676.50;4214934;33;35979;-85
2024/02/15 10:40:38;;;;;;;5.30;3.20;;;;;;;12.75;49.56;100672.78;4211375;33;33995;-85
2024/02/15 10:43:06;;;;;;;5.00;2.33;;;;;;;12.46;51.06;100680.03;4223865;33;33329;-85
2024/02/15 10:45:36;;;;;;;1.60;1.42;;;;;;;12.77;49.59;100670.91;4202567;33;34777;-85
2024/02/15 10:48:08;;;;;;;2.03;1.87;;;;;;;12.99;48.62;100671.81;4196915;33;33347;-87
2024/02/15 10:50:39;;;;;;;4.55;3.55;;;;;;;13.27;46.83;100668.06;4217031;33;34305;-85
2024/02/15 10:53:29;;;;;;;2.17;1.60;;;;;;;13.26;47.08;100676.97;4213451;33;34416;-89
2024/02/15 10:56:26;;;;;;;6.62;1.98;;;;;;;12.82;48.98;100674.28;4207690;33;34531;-85
2024/02/15 10:59:07;;;;;;;3.03;2.83;;;;;;;12.95;48.71;100667.53;4226515;33;34085;-85
2024/02/15 11:01:37;;;;;;;3.67;2.80;;;;;;;12.31;49.85;100670.03;4227216;33;34375;-85
2024/02/15 11:04:12;;;;;;;3.70;3.28;;;;;;;12.79;49.20;100659.34;4234447;33;33921;-85
2024/02/15 11:06:43;;;;;;;2.62;2.40;;;;;;;12.78;49.09;100662.06;4199122;33;34990;-84
2024/02/15 11:09:11;;;;;;;4.03;2.45;;;;;;;12.84;48.95;100666.25;4210869;33;34499;-85
2024/02/15 11:11:40;;;;;;;5.70;3.17;;;;;;;12.88;49.02;100660.78;4201005;33;32079;-84
2024/02/15 11:14:31;;;;;;;2.62;2.42;;;;;;;12.97;49.26;100657.75;4213490;33;32602;-84
2024/02/15 11:17:02;;;;;;;;;;;;;;;13.16;48.23;100654.37;4214346;33;31529;-84
2024/02/15 11:19:39;;;;;;;1.70;1.60;;;;;;;12.89;48.73;100649.25;4223637;33;34064;-84
2024/02/15 11:22:13;;;;;;;1.75;1.65;;;;;;;12.92;48.38;100654.44;4224286;33;33683;-84
2024/02/15 11:24:51;;;;;;;7.93;5.25;;;;;;;13.03;48.04;100651.34;4213526;33;31776;-84
2024/02/15 11:27:26;;;;;;;3.08;2.87;;;;;;;13.06;48.05;100641.50;4203993;33;31701;-85
2024/02/15 11:30:15;;;;;;;3.17;2.55;;;;;;;13.15;47.41;100636.72;4222351;33;33612;-84
2024/02/15 11:32:49;;;;;;;9.63;3.62;;;;;;;12.52;48.61;100648.00;4202546;33;33818;-84
2024/02/15 11:35:22;;;;;;;5.22;2.78;;;;;;;12.97;48.22;100641.84;4210724;33;34308;-84
2024/02/15 11:37:53;;;;;;;15.10;2.47;;;;;;;12.53;48.30;100649.78;4203958;33;30631;-83
2024/02/15 11:40:27;;;;;;;5.62;2.83;;;;;;;12.55;48.49;100647.06;4215282;33;31041;-84
2024/02/15 11:42:58;;;;;;;6.40;2.03;;;;;;;13.02;47.49;100650.47;4219533;33;34171;-84
2024/02/15 11:45:32;;;;;;;3.75;1.73;;;;;;;13.43;45.75;100645.28;4223334;33;33223;-84
2024/02/15 11:48:01;;;;;;;1.77;1.67;;;;;;;13.08;46.40;100642.28;4225464;33;34057;-84
2024/02/15 11:50:35;;;;;;;1.65;1.55;;;;;;;13.41;46.65;100639.19;4211453;33;34337;-84
2024/02/15 11:53:10;;;;;;;6.28;3.90;;;;;;;13.26;46.35;100639.84;4210576;33;33844;-84
2024/02/15 11:55:40;;;;;;;7.47;1.70;;;;;;;13.08;46.87;100636.97;4205019;33;32904;-84